createdAt,value
2024-02-05T00:00:07.832Z,633.91
2024-02-05T00:01:07.883Z,630.90
2024-02-05T00:02:07.800Z,630.90
2024-02-05T00:03:07.797Z,630.90
2024-02-05T00:04:07.803Z,643.11
2024-02-05T00:05:07.783Z,643.11
2024-02-05T00:06:07.780Z,644.99
2024-02-05T00:07:07.792Z,650.67
2024-02-05T00:08:07.846Z,648.77
2024-02-05T00:09:07.718Z,653.23
2024-02-05T00:10:07.766Z,655.16
2024-02-05T00:11:07.712Z,661.03
2024-02-05T00:12:07.677Z,663.01
2024-02-05T00:13:07.678Z,671.05
2024-02-05T00:14:07.656Z,667.67
2024-02-05T00:15:07.657Z,670.37
2024-02-05T00:16:07.658Z,674.45
2024-02-05T00:17:07.606Z,679.97
2024-02-05T00:18:07.619Z,687.01
2024-02-05T00:19:07.688Z,692.74
2024-02-05T00:20:07.625Z,705.99
2024-02-05T00:21:07.567Z,714.34
2024-02-05T00:22:07.598Z,710.52
2024-02-05T00:23:07.535Z,722.10
2024-02-05T00:24:07.557Z,720.54
2024-02-05T00:25:07.559Z,722.89
2024-02-05T00:26:07.503Z,725.26
2024-02-05T00:27:07.485Z,726.05
2024-02-05T00:28:07.539Z,732.45
2024-02-05T00:29:07.468Z,726.05
2024-02-05T00:30:07.453Z,733.26
2024-02-05T00:31:07.470Z,735.70
2024-02-05T00:32:07.418Z,727.64
2024-02-05T00:33:07.508Z,734.88
2024-02-05T00:34:07.487Z,730.04
2024-02-05T00:35:07.381Z,726.84
2024-02-05T00:36:07.413Z,730.84
2024-02-05T00:37:07.360Z,730.04
2024-02-05T00:38:07.335Z,733.26
2024-02-05T00:39:07.336Z,736.51
2024-02-05T00:40:07.517Z,737.33
2024-02-05T00:41:07.306Z,737.33
2024-02-05T00:42:07.304Z,734.07
2024-02-05T00:43:07.286Z,738.15
2024-02-05T00:44:07.264Z,742.27
2024-02-05T00:45:07.247Z,745.61
2024-02-05T00:46:07.371Z,748.87
2024-02-05T00:47:07.278Z,748.97
2024-02-05T00:48:07.279Z,747.19
2024-02-05T00:49:07.310Z,748.03
2024-02-05T00:50:07.426Z,743.94
2024-02-05T00:51:07.262Z,747.61
2024-02-05T00:52:07.277Z,750.14
2024-02-05T00:53:07.219Z,750.14
2024-02-05T00:54:07.190Z,756.97
2024-02-05T00:55:07.304Z,759.13
2024-02-05T00:56:07.291Z,759.13
2024-02-05T00:57:07.170Z,757.83
2024-02-05T00:58:07.173Z,761.30
2024-02-05T00:59:07.104Z,759.57
2024-02-05T01:00:07.080Z,762.18
2024-02-05T01:01:07.164Z,767.01
2024-02-05T01:02:07.183Z,763.93
2024-02-05T01:03:07.041Z,768.79
2024-02-05T01:04:07.213Z,766.13
2024-02-05T01:05:07.181Z,767.46
2024-02-05T01:06:07.097Z,773.26
2024-02-05T01:07:07.094Z,775.51
2024-02-05T01:08:07.041Z,772.81
2024-02-05T01:09:06.969Z,773.71
2024-02-05T01:10:06.993Z,769.67
2024-02-05T01:11:06.934Z,770.12
2024-02-05T01:12:06.943Z,767.01
2024-02-05T01:13:06.940Z,774.61
2024-02-05T01:14:06.905Z,770.57
2024-02-05T01:15:06.881Z,771.91
2024-02-05T01:16:06.892Z,778.69
2024-02-05T01:17:06.861Z,777.78
2024-02-05T01:18:06.912Z,764.81
2024-02-05T01:19:06.887Z,767.01
2024-02-05T01:20:06.880Z,771.01
2024-02-05T01:21:06.820Z,771.46
2024-02-05T01:22:06.856Z,783.27
2024-02-05T01:23:06.782Z,784.20
2024-02-05T01:24:06.787Z,786.05
2024-02-05T01:25:06.823Z,784.66
2024-02-05T01:26:06.747Z,780.97
2024-02-05T01:27:06.768Z,781.89
2024-02-05T01:28:06.749Z,782.35
2024-02-05T01:29:06.713Z,781.89
2024-02-05T01:30:06.697Z,771.91
2024-02-05T01:31:06.749Z,773.26
2024-02-05T01:32:06.668Z,772.36
2024-02-05T01:33:06.705Z,768.79
2024-02-05T01:34:06.761Z,769.23
2024-02-05T01:35:06.683Z,766.13
2024-02-05T01:36:06.645Z,759.13
2024-02-05T01:37:06.629Z,753.54
2024-02-05T01:38:06.600Z,753.97
2024-02-05T01:39:06.586Z,754.40
2024-02-05T01:40:06.641Z,751.41
2024-02-05T01:41:06.567Z,759.13
2024-02-05T01:42:06.553Z,750.14
2024-02-05T01:43:06.547Z,747.28
2024-02-05T01:44:06.506Z,747.28
2024-02-05T01:45:06.510Z,742.27
2024-02-05T01:46:06.582Z,741.45
2024-02-05T01:47:06.482Z,738.97
2024-02-05T01:48:06.563Z,738.97
2024-02-05T01:49:06.513Z,740.62
2024-02-05T01:50:06.496Z,734.07
2024-02-05T01:51:06.462Z,725.26
2024-02-05T01:52:06.485Z,732.45
2024-02-05T01:53:06.415Z,726.05
2024-02-05T01:54:06.417Z,731.65
2024-02-05T01:55:06.411Z,726.05
2024-02-05T01:56:06.359Z,727.64
2024-02-05T01:57:06.349Z,720.54
2024-02-05T01:58:06.420Z,726.05
2024-02-05T01:59:06.331Z,725.26
2024-02-05T02:00:06.320Z,716.65
2024-02-05T02:01:06.361Z,709.76
2024-02-05T02:02:06.327Z,715.88
2024-02-05T02:03:06.286Z,709.76
2024-02-05T02:04:06.322Z,704.49
2024-02-05T02:05:06.373Z,702.26
2024-02-05T02:06:06.247Z,709.00
2024-02-05T02:07:06.316Z,708.25
2024-02-05T02:08:06.222Z,708.25
2024-02-05T02:09:06.208Z,707.49
2024-02-05T02:10:06.215Z,710.52
2024-02-05T02:11:06.183Z,709.00
2024-02-05T02:12:06.159Z,704.49
2024-02-05T02:13:06.375Z,705.24
2024-02-05T02:14:06.138Z,699.30
2024-02-05T02:15:06.147Z,700.04
2024-02-05T02:16:06.148Z,699.30
2024-02-05T02:17:06.111Z,694.18
2024-02-05T02:18:06.126Z,692.74
2024-02-05T02:19:06.173Z,688.43
2024-02-05T02:20:06.174Z,691.30
2024-02-05T02:21:06.048Z,689.86
2024-02-05T02:22:06.085Z,692.02
2024-02-05T02:23:06.041Z,682.07
2024-02-05T02:24:06.017Z,678.59
2024-02-05T02:25:06.007Z,677.89
2024-02-05T02:26:05.999Z,673.09
2024-02-05T02:27:05.970Z,665.00
2024-02-05T02:28:05.959Z,662.35
2024-02-05T02:29:05.952Z,659.06
2024-02-05T02:30:05.947Z,657.11
2024-02-05T02:31:05.959Z,656.46
2024-02-05T02:32:05.948Z,653.23
2024-02-05T02:33:06.004Z,647.50
2024-02-05T02:34:06.066Z,648.77
2024-02-05T02:35:05.904Z,653.23
2024-02-05T02:36:05.859Z,644.36
2024-02-05T02:37:05.925Z,652.59
2024-02-05T02:38:05.824Z,646.24
2024-02-05T02:39:05.846Z,646.24
2024-02-05T02:40:05.861Z,640.63
2024-02-05T02:41:05.798Z,633.30
2024-02-05T02:42:05.805Z,626.14
2024-02-05T02:43:05.801Z,626.73
2024-02-05T02:44:05.789Z,626.73
2024-02-05T02:45:05.754Z,626.73
2024-02-05T02:46:05.785Z,615.70
2024-02-05T02:47:05.720Z,615.12
2024-02-05T02:48:05.828Z,605.59
2024-02-05T02:49:05.758Z,610.04
2024-02-05T02:50:05.684Z,603.39
2024-02-05T02:51:05.669Z,608.36
2024-02-05T02:52:05.726Z,605.59
2024-02-05T02:53:05.656Z,600.66
2024-02-05T02:54:05.650Z,589.47
2024-02-05T02:55:05.725Z,594.22
2024-02-05T02:56:05.599Z,591.57
2024-02-05T02:57:05.596Z,592.10
2024-02-05T02:58:05.626Z,592.10
2024-02-05T02:59:05.575Z,586.35
2024-02-05T03:00:05.541Z,587.39
2024-02-05T03:01:05.661Z,584.80
2024-02-05T03:02:05.602Z,578.69
2024-02-05T03:03:05.585Z,585.32
2024-02-05T03:04:05.594Z,589.47
2024-02-05T03:05:05.501Z,585.83
2024-02-05T03:06:05.599Z,592.10
2024-02-05T03:07:05.521Z,589.47
2024-02-05T03:08:05.464Z,587.39
2024-02-05T03:09:05.447Z,579.19
2024-02-05T03:10:05.482Z,585.32
2024-02-05T03:11:05.432Z,582.24
2024-02-05T03:12:05.395Z,587.39
2024-02-05T03:13:05.487Z,589.47
2024-02-05T03:14:05.370Z,582.75
2024-02-05T03:15:05.373Z,579.19
2024-02-05T03:16:05.367Z,575.18
2024-02-05T03:17:05.333Z,574.19
2024-02-05T03:18:05.378Z,581.22
2024-02-05T03:19:05.463Z,587.39
2024-02-05T03:20:05.423Z,586.87
2024-02-05T03:21:05.300Z,587.91
2024-02-05T03:22:05.388Z,587.39
2024-02-05T03:23:08.984Z,591.04
2024-02-05T03:24:05.245Z,585.32
2024-02-05T03:25:05.340Z,587.91
2024-02-05T03:26:05.217Z,584.80
2024-02-05T03:27:05.218Z,579.70
2024-02-05T03:28:05.244Z,580.71
2024-02-05T03:29:05.198Z,576.68
2024-02-05T03:30:05.214Z,567.32
2024-02-05T03:31:05.199Z,553.15
2024-02-05T03:32:05.238Z,553.61
2024-02-05T03:33:05.143Z,554.54
2024-02-05T03:34:05.235Z,555.00
2024-02-05T03:35:05.142Z,545.88
2024-02-05T03:36:05.093Z,549.95
2024-02-05T03:37:05.100Z,554.07
2024-02-05T03:38:05.064Z,558.27
2024-02-05T03:39:05.055Z,554.07
2024-02-05T03:40:05.076Z,554.07
2024-02-05T03:41:05.045Z,549.95
2024-02-05T03:42:05.045Z,548.58
2024-02-05T03:43:05.056Z,539.67
2024-02-05T03:44:05.027Z,540.99
2024-02-05T03:45:04.986Z,534.89
2024-02-05T03:46:05.014Z,535.75
2024-02-05T03:47:04.963Z,538.80
2024-02-05T03:48:05.004Z,533.17
2024-02-05T03:49:04.978Z,532.75
2024-02-05T03:50:05.000Z,526.83
2024-02-05T03:51:04.919Z,523.92
2024-02-05T03:52:04.944Z,521.87
2024-02-05T03:53:04.875Z,516.99
2024-02-05T03:54:04.897Z,514.59
2024-02-05T03:55:04.930Z,511.81
2024-02-05T03:56:04.842Z,516.99
2024-02-05T03:57:04.842Z,511.42
2024-02-05T03:58:04.885Z,503.28
2024-02-05T03:59:04.822Z,503.28
2024-02-05T04:00:04.778Z,499.12
2024-02-05T04:01:04.814Z,501.39
2024-02-05T04:02:04.864Z,506.35
2024-02-05T04:03:04.840Z,501.39
2024-02-05T04:04:04.800Z,493.93
2024-02-05T04:05:04.758Z,492.10
2024-02-05T04:06:04.769Z,488.84
2024-02-05T04:07:04.716Z,482.45
2024-02-05T04:08:04.694Z,481.40
2024-02-05T04:09:04.672Z,477.60
2024-02-05T04:10:04.761Z,475.20
2024-02-05T04:11:04.660Z,478.63
2024-02-05T04:12:04.644Z,480.36
2024-02-05T04:13:04.641Z,478.63
2024-02-05T04:14:04.615Z,473.85
2024-02-05T04:15:04.616Z,468.83
2024-02-05T04:16:04.594Z,469.16
2024-02-05T04:17:04.600Z,468.83
2024-02-05T04:18:04.605Z,464.89
2024-02-05T04:19:04.659Z,461.02
2024-02-05T04:20:04.608Z,464.57
2024-02-05T04:21:04.514Z,462.63
2024-02-05T04:22:04.554Z,461.34
2024-02-05T04:23:06.868Z,456.59
2024-02-05T04:24:04.469Z,453.16
2024-02-05T04:25:04.506Z,450.09
2024-02-05T04:26:04.455Z,449.79
2024-02-05T04:27:04.464Z,444.37
2024-02-05T04:28:04.529Z,442.60
2024-02-05T04:29:04.423Z,439.38
2024-02-05T04:30:04.423Z,428.60
2024-02-05T04:31:04.469Z,430.83
2024-02-05T04:32:04.381Z,434.77
2024-02-05T04:33:06.374Z,432.23
2024-02-05T04:34:04.416Z,427.77
2024-02-05T04:35:04.547Z,413.66
2024-02-05T04:36:04.321Z,420.20
2024-02-05T04:37:04.355Z,423.95
2024-02-05T04:38:04.311Z,422.87
2024-02-05T04:39:04.284Z,428.33
2024-02-05T04:40:04.328Z,426.95
2024-02-05T04:41:04.268Z,427.50
2024-02-05T04:42:04.244Z,427.23
2024-02-05T04:43:04.281Z,425.86
2024-02-05T04:44:04.228Z,428.05
2024-02-05T04:45:04.254Z,419.93
2024-02-05T04:46:04.271Z,424.49
2024-02-05T04:47:04.189Z,418.61
2024-02-05T04:48:04.200Z,421.27
2024-02-05T04:49:04.293Z,414.43
2024-02-05T04:50:04.270Z,421.27
2024-02-05T04:51:04.161Z,404.83
2024-02-05T04:52:04.179Z,405.08
2024-02-05T04:53:04.116Z,403.12
2024-02-05T04:54:04.092Z,403.12
2024-02-05T04:55:04.188Z,414.95
2024-02-05T04:56:04.100Z,404.83
2024-02-05T04:57:04.059Z,411.61
2024-02-05T04:58:04.080Z,400.20
2024-02-05T04:59:04.035Z,408.57
2024-02-05T05:00:04.046Z,400.44
2024-02-05T05:01:04.205Z,396.38
2024-02-05T05:02:04.277Z,385.57
2024-02-05T05:03:03.990Z,386.24
2024-02-05T05:04:04.019Z,389.64
2024-02-05T05:05:04.002Z,383.57
2024-02-05T05:06:03.951Z,378.47
2024-02-05T05:07:04.039Z,381.80
2024-02-05T05:08:03.914Z,375.00
2024-02-05T05:09:03.956Z,364.54
2024-02-05T05:10:03.926Z,362.52
2024-02-05T05:11:03.900Z,369.07
2024-02-05T05:12:03.876Z,361.72
2024-02-05T05:13:03.850Z,360.13
2024-02-05T05:14:03.866Z,363.73
2024-02-05T05:15:03.841Z,362.52
2024-02-05T05:16:03.888Z,362.52
2024-02-05T05:17:03.812Z,359.33
2024-02-05T05:18:03.846Z,357.76
2024-02-05T05:19:03.915Z,355.04
2024-02-05T05:20:03.792Z,329.95
2024-02-05T05:21:03.755Z,322.79
2024-02-05T05:22:03.761Z,327.31
2024-02-05T05:23:03.726Z,331.29
2024-02-05T05:24:03.712Z,336.06
2024-02-05T05:25:03.718Z,330.96
2024-02-05T05:26:03.700Z,333.66
2024-02-05T05:27:03.672Z,324.39
2024-02-05T05:28:03.686Z,307.31
2024-02-05T05:29:03.673Z,305.59
2024-02-05T05:30:03.636Z,306.73
2024-02-05T05:31:03.624Z,305.02
2024-02-05T05:32:03.593Z,305.02
2024-02-05T05:33:03.683Z,306.73
2024-02-05T05:34:03.641Z,303.32
2024-02-05T05:35:03.623Z,289.36
2024-02-05T05:36:03.565Z,294.84
2024-02-05T05:37:03.562Z,299.70
2024-02-05T05:38:03.623Z,289.10
2024-02-05T05:39:03.531Z,285.07
2024-02-05T05:40:03.523Z,285.82
2024-02-05T05:41:03.484Z,290.90
2024-02-05T05:42:03.467Z,290.39
2024-02-05T05:43:03.544Z,297.25
2024-02-05T05:44:03.460Z,300.53
2024-02-05T05:45:03.541Z,301.64
2024-02-05T05:46:04.396Z,300.53
2024-02-05T05:47:03.430Z,297.52
2024-02-05T05:48:03.422Z,296.71
2024-02-05T05:49:03.454Z,296.71
2024-02-05T05:50:03.549Z,290.39
2024-02-05T05:51:03.348Z,287.32
2024-02-05T05:52:03.420Z,280.42
2024-02-05T05:53:03.329Z,284.82
2024-02-05T05:54:03.319Z,284.57
2024-02-05T05:55:03.416Z,283.83
2024-02-05T05:56:03.289Z,285.82
2024-02-05T05:57:03.267Z,283.34
2024-02-05T05:58:03.340Z,281.63
2024-02-05T05:59:03.264Z,285.07
2024-02-05T06:00:03.301Z,284.82
2024-02-05T06:01:03.317Z,283.83
2024-02-05T06:02:03.374Z,283.34
2024-02-05T06:03:03.206Z,272.70
2024-02-05T06:04:03.297Z,268.67
2024-02-05T06:05:04.037Z,260.53
2024-02-05T06:06:03.188Z,263.26
2024-02-05T06:07:03.203Z,266.91
2024-02-05T06:08:03.138Z,267.57
2024-02-05T06:09:03.117Z,268.89
2024-02-05T06:10:03.202Z,267.57
2024-02-05T06:11:03.099Z,268.67
2024-02-05T06:12:03.085Z,269.11
2024-02-05T06:13:03.094Z,268.67
2024-02-05T06:14:03.124Z,269.11
2024-02-05T06:15:03.042Z,270.67
2024-02-05T06:16:03.179Z,266.48
2024-02-05T06:17:03.055Z,266.69
2024-02-05T06:18:03.074Z,268.45
2024-02-05T06:19:03.059Z,258.88
2024-02-05T06:20:04.089Z,258.88
2024-02-05T06:21:03.002Z,258.06
2024-02-05T06:22:03.020Z,258.06
2024-02-05T06:23:02.947Z,256.24
2024-02-05T06:24:02.939Z,256.64
2024-02-05T06:25:03.025Z,246.21
2024-02-05T06:26:02.927Z,249.02
2024-02-05T06:27:02.903Z,239.71
2024-02-05T06:28:03.975Z,231.55
2024-02-05T06:29:02.904Z,232.54
2024-02-05T06:30:02.843Z,231.06
2024-02-05T06:31:02.867Z,224.40
2024-02-05T06:32:02.819Z,229.12
2024-02-05T06:33:02.831Z,233.54
2024-02-05T06:34:05.662Z,234.71
2024-02-05T06:35:02.989Z,232.05
2024-02-05T06:36:02.788Z,231.88
2024-02-05T06:37:02.863Z,225.33
2024-02-05T06:38:02.745Z,214.11
2024-02-05T06:39:02.734Z,215.10
2024-02-05T06:40:02.811Z,214.25
2024-02-05T06:41:02.712Z,212.86
2024-02-05T06:42:02.693Z,214.39
2024-02-05T06:43:02.775Z,218.84
2024-02-05T06:44:02.722Z,223.33
2024-02-05T06:45:02.684Z,227.84
2024-02-05T06:46:02.712Z,229.76
2024-02-05T06:47:02.792Z,228.32
2024-02-05T06:48:02.694Z,226.89
2024-02-05T06:49:02.783Z,221.81
2024-02-05T06:50:02.675Z,223.48
2024-02-05T06:51:02.567Z,208.25
2024-02-05T06:52:02.648Z,190.41
2024-02-05T06:53:02.538Z,173.18
2024-02-05T06:54:02.531Z,173.72
2024-02-05T06:55:02.603Z,180.31
2024-02-05T06:56:02.514Z,184.61
2024-02-05T06:57:02.931Z,185.75
2024-02-05T06:58:03.135Z,181.69
2024-02-05T06:59:03.044Z,182.09
2024-02-05T07:00:02.741Z,184.61
2024-02-05T07:01:02.901Z,181.69
2024-02-05T07:02:02.714Z,175.55
2024-02-05T07:03:02.964Z,169.47
2024-02-05T07:04:03.904Z,171.04
2024-02-05T07:05:04.089Z,170.51
2024-02-05T07:06:03.581Z,162.20
2024-02-05T07:07:04.363Z,157.58
2024-02-05T07:08:02.593Z,158.79
2024-02-05T07:09:02.522Z,164.60
2024-02-05T07:10:02.644Z,161.72
2024-02-05T07:11:02.420Z,163.79
2024-02-05T07:12:05.661Z,167.42
2024-02-05T07:13:02.532Z,176.11
2024-02-05T07:14:02.661Z,185.13
2024-02-05T07:15:04.039Z,183.30
2024-02-05T07:16:03.727Z,183.50
2024-02-05T07:17:02.561Z,186.19
2024-02-05T07:18:02.518Z,185.34
2024-02-05T07:19:02.330Z,179.73
2024-02-05T07:20:04.984Z,182.49
2024-02-05T07:21:03.531Z,185.34
2024-02-05T07:22:02.418Z,181.89
2024-02-05T07:23:02.436Z,191.08
2024-02-05T07:24:04.133Z,187.57
2024-02-05T07:25:02.413Z,188.44
2024-02-05T07:26:02.724Z,199.24
2024-02-05T07:27:04.066Z,200.34
2024-02-05T07:28:04.477Z,200.83
2024-02-05T07:29:02.193Z,192.21
2024-02-05T07:30:02.554Z,194.26
2024-02-05T07:31:03.972Z,195.19
2024-02-05T07:32:02.726Z,198.75
2024-02-05T07:33:02.196Z,197.79
2024-02-05T07:34:02.827Z,201.82
2024-02-05T07:35:02.333Z,205.37
2024-02-05T07:36:04.111Z,200.34
2024-02-05T07:37:02.038Z,201.82
2024-02-05T07:38:02.812Z,200.70
2024-02-05T07:39:03.649Z,200.83
2024-02-05T07:40:03.126Z,206.15
2024-02-05T07:41:15.544Z,205.76
2024-02-05T07:42:02.845Z,200.83
2024-02-05T07:43:11.232Z,196.96
2024-02-05T07:44:02.488Z,193.12
2024-02-05T07:45:02.813Z,195.54
2024-02-05T07:46:03.172Z,198.63
2024-02-05T07:47:02.643Z,203.58
2024-02-05T07:48:05.265Z,209.58
2024-02-05T07:49:03.460Z,209.18
2024-02-05T07:50:04.537Z,212.86
2024-02-05T07:51:01.984Z,214.39
2024-02-05T07:52:04.867Z,211.48
2024-02-05T07:53:02.038Z,212.86
2024-02-05T07:54:03.129Z,197.67
2024-02-05T07:55:05.561Z,196.72
2024-02-05T07:56:04.759Z,200.83
2024-02-05T07:57:01.952Z,206.41
2024-02-05T07:58:01.964Z,205.24
2024-02-05T07:59:03.591Z,207.06
2024-02-05T08:00:02.667Z,213.27
2024-02-05T08:01:02.612Z,218.11
2024-02-05T08:02:01.771Z,219.43
2024-02-05T08:03:01.766Z,216.81
2024-02-05T08:04:01.750Z,213.55
2024-02-05T08:05:04.323Z,213.27
2024-02-05T08:06:04.010Z,202.07
2024-02-05T08:07:03.368Z,208.25
2024-02-05T08:08:02.633Z,206.54
2024-02-05T08:09:02.875Z,207.98
2024-02-05T08:10:02.024Z,211.21
2024-02-05T08:11:02.374Z,207.72
2024-02-05T08:12:03.864Z,209.99
2024-02-05T08:13:02.088Z,210.12
2024-02-05T08:14:01.653Z,207.32
2024-02-05T08:15:03.969Z,212.17
2024-02-05T08:16:01.656Z,216.38
2024-02-05T08:17:09.164Z,212.58
2024-02-05T08:18:02.161Z,216.24
2024-02-05T08:19:02.856Z,220.76
2024-02-05T08:20:04.969Z,217.39
2024-02-05T08:21:02.317Z,215.95
2024-02-05T08:22:01.959Z,213.41
2024-02-05T08:23:01.927Z,207.85
2024-02-05T08:24:01.445Z,212.58
2024-02-05T08:25:01.456Z,212.58
2024-02-05T08:26:01.393Z,211.21
2024-02-05T08:27:01.424Z,209.31
2024-02-05T08:28:01.373Z,213.69
2024-02-05T08:29:01.348Z,216.38
2024-02-05T08:30:01.375Z,215.24
2024-02-05T08:31:01.328Z,211.76
2024-02-05T08:32:01.257Z,209.18
2024-02-05T08:33:01.369Z,200.46
2024-02-05T08:34:01.374Z,203.32
2024-02-05T08:35:01.531Z,204.47
2024-02-05T08:36:01.233Z,207.45
2024-02-05T08:37:01.258Z,208.65
2024-02-05T08:38:01.254Z,214.39
2024-02-05T08:39:01.179Z,218.55
2024-02-05T08:40:01.279Z,220.62
2024-02-05T08:41:01.244Z,224.56
2024-02-05T08:42:09.358Z,228.64
2024-02-05T08:43:01.169Z,235.56
2024-02-05T08:44:01.225Z,232.54
2024-02-05T08:45:03.495Z,232.21
2024-02-05T08:46:01.206Z,235.90
2024-02-05T08:47:01.113Z,239.35
2024-02-05T08:48:01.119Z,235.05
2024-02-05T08:49:01.175Z,229.60
2024-02-05T08:50:01.278Z,234.88
2024-02-05T08:51:01.374Z,240.41
2024-02-05T08:52:02.082Z,239.88
2024-02-05T08:53:01.202Z,237.27
2024-02-05T08:54:01.003Z,229.28
2024-02-05T08:55:01.020Z,222.42
2024-02-05T08:56:01.159Z,224.40
2024-02-05T08:57:00.945Z,239.35
2024-02-05T08:58:00.969Z,246.58
2024-02-05T08:59:01.015Z,255.84
2024-02-05T09:00:01.017Z,258.88
2024-02-05T09:01:01.161Z,269.11
2024-02-05T09:02:01.080Z,279.22
2024-02-05T09:03:00.928Z,282.85
2024-02-05T09:04:00.872Z,285.82
2024-02-05T09:05:00.841Z,290.90
2024-02-05T09:06:01.010Z,298.34
2024-02-05T09:07:00.884Z,300.25
2024-02-05T09:08:00.821Z,299.98
2024-02-05T09:09:00.785Z,305.87
2024-02-05T09:10:00.888Z,306.16
2024-02-05T09:11:00.741Z,315.31
2024-02-05T09:12:05.996Z,319.01
2024-02-05T09:13:00.785Z,300.25
2024-02-05T09:14:00.696Z,296.71
2024-02-05T09:15:00.794Z,288.34
2024-02-05T09:16:00.885Z,277.80
2024-02-05T09:17:00.936Z,272.02
2024-02-05T09:18:00.789Z,280.90
2024-02-05T09:19:00.892Z,299.15
2024-02-05T09:20:00.831Z,308.18
2024-02-05T09:21:00.613Z,319.01
2024-02-05T09:22:00.853Z,326.66
2024-02-05T09:23:00.721Z,331.29
2024-02-05T09:24:00.630Z,336.06
2024-02-05T09:25:00.648Z,355.43
2024-02-05T09:26:00.616Z,361.32
2024-02-05T09:27:00.654Z,365.77
2024-02-05T09:28:00.779Z,371.17
2024-02-05T09:29:00.585Z,369.07
2024-02-05T09:30:00.618Z,384.68
2024-02-05T09:31:08.973Z,383.12
2024-02-05T09:32:00.664Z,373.71
2024-02-05T09:33:00.548Z,368.24
2024-02-05T09:34:00.525Z,363.73
2024-02-05T09:35:00.580Z,346.02
2024-02-05T09:36:00.519Z,331.63
2024-02-05T09:37:00.503Z,346.76
2024-02-05T09:38:00.492Z,360.13
2024-02-05T09:39:00.621Z,369.49
2024-02-05T09:40:00.615Z,375.00
2024-02-05T09:41:00.363Z,378.03
2024-02-05T09:42:00.381Z,384.01
2024-02-05T09:43:00.412Z,381.80
2024-02-05T09:44:00.354Z,366.59
2024-02-05T09:45:00.371Z,365.77
2024-02-05T09:46:00.329Z,373.29
2024-02-05T09:47:00.300Z,366.18
2024-02-05T09:48:00.334Z,364.14
2024-02-05T09:49:00.450Z,358.55
2024-02-05T09:50:00.380Z,360.92
2024-02-05T09:51:00.433Z,368.65
2024-02-05T09:52:00.290Z,380.93
2024-02-05T09:53:00.223Z,386.69
2024-02-05T09:54:10.475Z,387.37
2024-02-05T09:55:00.381Z,388.05
2024-02-05T09:56:00.251Z,402.63
2024-02-05T09:57:00.157Z,421.53
2024-02-05T09:58:00.216Z,417.03
2024-02-05T09:59:00.167Z,423.41
2024-02-05T10:00:00.197Z,425.86
2024-02-05T10:01:00.281Z,428.88
2024-02-05T10:02:00.217Z,444.97
2024-02-05T10:03:00.152Z,456.59
2024-02-05T10:04:00.199Z,467.51
2024-02-05T10:05:00.394Z,464.24
2024-02-05T10:06:00.145Z,458.48
2024-02-05T10:07:01.065Z,468.17
2024-02-05T10:08:00.587Z,465.55
2024-02-05T10:09:00.003Z,481.05
2024-02-05T10:10:00.142Z,485.27
2024-02-05T10:11:00.021Z,493.56
2024-02-05T10:12:00.036Z,504.43
2024-02-05T10:13:00.136Z,503.67
2024-02-05T10:13:59.987Z,494.67
2024-02-05T10:15:00.056Z,499.88
2024-02-05T10:15:59.967Z,503.28
2024-02-05T10:17:03.638Z,511.81
2024-02-05T10:18:01.062Z,517.80
2024-02-05T10:18:59.972Z,511.03
2024-02-05T10:20:00.246Z,498.38
2024-02-05T10:20:59.891Z,507.51
2024-02-05T10:21:59.901Z,510.63
2024-02-05T10:22:59.897Z,515.79
2024-02-05T10:23:59.870Z,517.80
2024-02-05T10:24:59.917Z,487.41
2024-02-05T10:26:00.062Z,487.05
2024-02-05T10:27:00.020Z,481.05
2024-02-05T10:27:59.831Z,483.50
2024-02-05T10:28:59.795Z,485.62
2024-02-05T10:30:02.738Z,487.05
2024-02-05T10:31:00.114Z,495.03
2024-02-05T10:31:59.994Z,498.38
2024-02-05T10:32:59.891Z,512.60
2024-02-05T10:34:00.364Z,513.00
2024-02-05T10:34:59.813Z,514.99
2024-02-05T10:36:02.680Z,531.89
2024-02-05T10:36:59.787Z,541.43
2024-02-05T10:37:59.829Z,549.95
2024-02-05T10:38:59.806Z,548.58
2024-02-05T10:40:00.078Z,558.73
2024-02-05T10:40:59.630Z,564.43
2024-02-05T10:42:00.674Z,566.36
2024-02-05T10:42:59.664Z,547.23
2024-02-05T10:43:59.974Z,547.68
2024-02-05T10:44:59.693Z,534.89
2024-02-05T10:45:59.671Z,534.89
2024-02-05T10:46:59.540Z,541.87
2024-02-05T10:47:59.744Z,540.11
2024-02-05T10:48:59.753Z,547.68
2024-02-05T10:50:00.880Z,527.67
2024-02-05T10:50:59.529Z,522.69
2024-02-05T10:51:59.581Z,524.75
2024-02-05T10:52:59.695Z,527.25
2024-02-05T10:53:59.728Z,544.98
2024-02-05T10:55:00.097Z,554.54
2024-02-05T10:55:59.648Z,561.57
2024-02-05T10:56:59.444Z,569.76
2024-02-05T10:57:59.621Z,574.19
2024-02-05T10:58:59.379Z,590.52
2024-02-05T10:59:59.923Z,581.22
2024-02-05T11:00:59.500Z,582.24
2024-02-05T11:02:00.754Z,572.21
2024-02-05T11:03:00.502Z,577.18
2024-02-05T11:04:00.939Z,577.68
2024-02-05T11:04:59.400Z,573.20
2024-02-05T11:05:59.553Z,593.69
2024-02-05T11:07:00.108Z,596.89
2024-02-05T11:07:59.287Z,592.63
2024-02-05T11:08:59.553Z,596.89
2024-02-05T11:09:59.676Z,603.94
2024-02-05T11:10:59.343Z,613.42
2024-02-05T11:12:00.738Z,639.40
2024-02-05T11:12:59.407Z,663.67
2024-02-05T11:13:59.205Z,677.20
2024-02-05T11:14:59.193Z,667.67
2024-02-05T11:16:03.113Z,675.82
2024-02-05T11:16:59.553Z,663.01
2024-02-05T11:17:59.717Z,686.30
2024-02-05T11:19:00.229Z,697.10
2024-02-05T11:19:59.272Z,726.84
2024-02-05T11:20:59.163Z,740.62
2024-02-05T11:22:02.551Z,730.04
2024-02-05T11:22:59.114Z,726.84
2024-02-05T11:23:59.051Z,747.28
2024-02-05T11:24:59.157Z,750.14
2024-02-05T11:25:59.106Z,750.66
2024-02-05T11:26:59.109Z,748.97
2024-02-05T11:28:01.211Z,747.28
2024-02-05T11:28:59.017Z,734.88
2024-02-05T11:29:59.384Z,742.27
2024-02-05T11:30:59.082Z,749.29
2024-02-05T11:31:59.113Z,750.99
2024-02-05T11:32:59.056Z,763.49
2024-02-05T11:34:00.982Z,759.57
2024-02-05T11:34:59.018Z,745.61
2024-02-05T11:35:58.966Z,753.97
2024-02-05T11:36:58.910Z,784.20
2024-02-05T11:37:59.789Z,773.26
2024-02-05T11:38:59.080Z,745.61
2024-02-05T11:39:59.161Z,767.46
2024-02-05T11:41:01.830Z,780.06
2024-02-05T11:41:58.824Z,775.06
2024-02-05T11:42:58.942Z,793.56
2024-02-05T11:43:59.627Z,778.69
2024-02-05T11:44:58.853Z,781.89
2024-02-05T11:45:58.808Z,796.88
2024-02-05T11:46:58.804Z,781.89
2024-02-05T11:47:58.781Z,799.76
2024-02-05T11:48:59.032Z,822.51
2024-02-05T11:49:58.867Z,825.57
2024-02-05T11:50:58.763Z,823.53
2024-02-05T11:51:58.722Z,829.69
2024-02-05T11:52:58.687Z,831.77
2024-02-05T11:53:58.730Z,849.84
2024-02-05T11:54:58.706Z,868.71
2024-02-05T11:55:58.687Z,867.58
2024-02-05T11:56:58.729Z,853.11
2024-02-05T11:57:58.680Z,881.38
2024-02-05T11:58:58.607Z,899.26
2024-02-05T11:59:58.667Z,890.82
2024-02-05T12:00:59.208Z,895.02
2024-02-05T12:01:59.110Z,920.41
2024-02-05T12:03:01.091Z,935.96
2024-02-05T12:03:59.925Z,945.95
2024-02-05T12:04:59.404Z,949.32
2024-02-05T12:05:58.625Z,954.77
2024-02-05T12:06:59.387Z,983.73
2024-02-05T12:07:59.836Z,1015.27
2024-02-05T12:08:58.858Z,1037.44
2024-02-05T12:09:58.615Z,1057.23
2024-02-05T12:10:58.512Z,1066.56
2024-02-05T12:11:58.450Z,1069.99
2024-02-05T12:13:09.595Z,1077.80
2024-02-05T12:13:58.496Z,1064.00
2024-02-05T12:14:59.463Z,1073.45
2024-02-05T12:15:58.754Z,1083.06
2024-02-05T12:16:58.553Z,1039.06
2024-02-05T12:17:58.602Z,1063.15
2024-02-05T12:19:11.011Z,1059.76
2024-02-05T12:19:58.496Z,1048.90
2024-02-05T12:20:58.336Z,1078.67
2024-02-05T12:21:58.459Z,1087.49
2024-02-05T12:22:58.376Z,1086.60
2024-02-05T12:23:58.371Z,1095.55
2024-02-05T12:24:58.504Z,1113.90
2024-02-05T12:25:58.421Z,1091.06
2024-02-05T12:26:58.903Z,1088.38